createdAt,value
2019-01-10T00:02:14.799Z,1.20
2019-01-10T00:04:40.791Z,1.20
2019-01-10T00:07:06.774Z,1.30
2019-01-10T00:09:33.526Z,1.30
2019-01-10T00:12:00.235Z,1.20
2019-01-10T00:14:26.238Z,1.20
2019-01-10T00:16:52.210Z,1.20
2019-01-10T00:19:18.971Z,1.20
2019-01-10T00:21:44.940Z,1.10
2019-01-10T00:24:10.943Z,1.10
2019-01-10T00:26:36.896Z,1.20
2019-01-10T00:29:03.647Z,1.20
2019-01-10T00:31:30.405Z,1.20
2019-01-10T00:33:57.111Z,1.10
2019-01-10T00:36:23.121Z,1.10
2019-01-10T00:38:49.096Z,1.00
2019-01-10T00:41:15.093Z,1.00
2019-01-10T00:43:41.839Z,0.90
2019-01-10T00:46:07.836Z,0.90
2019-01-10T00:48:33.814Z,0.90
2019-01-10T00:50:59.814Z,0.90
2019-01-10T00:53:26.515Z,0.90
2019-01-10T00:55:52.525Z,0.80
2019-01-10T00:58:18.516Z,0.90
2019-01-10T01:00:45.260Z,0.80
2019-01-10T01:03:11.258Z,0.80
2019-01-10T01:05:37.256Z,0.90
2019-01-10T01:08:03.226Z,1.00
2019-01-10T01:10:29.224Z,1.00
2019-01-10T01:12:58.597Z,1.00
2019-01-10T01:15:21.982Z,1.00
2019-01-10T01:17:47.981Z,0.90
2019-01-10T01:20:13.949Z,1.00
2019-01-10T01:22:40.681Z,0.90
2019-01-10T01:25:06.648Z,0.80
2019-01-10T01:27:32.626Z,0.80
2019-01-10T01:29:58.592Z,0.80
2019-01-10T01:32:24.590Z,0.80
2019-01-10T01:34:51.291Z,0.70
2019-01-10T01:37:17.271Z,0.70
2019-01-10T01:39:43.251Z,0.70
2019-01-10T01:42:10.006Z,0.70
2019-01-10T01:44:36.726Z,0.70
2019-01-10T01:47:02.699Z,0.70
2019-01-10T01:49:28.693Z,0.80
2019-01-10T01:51:55.409Z,0.80
2019-01-10T01:54:22.164Z,0.80
2019-01-10T01:56:48.884Z,0.90
2019-01-10T01:59:14.883Z,0.90
2019-01-10T02:01:40.852Z,0.90
2019-01-10T02:04:06.842Z,0.80
2019-01-10T02:06:32.820Z,1.00
2019-01-10T02:08:58.805Z,1.00
2019-01-10T02:11:24.765Z,1.00
2019-01-10T02:13:50.768Z,1.00
2019-01-10T02:16:17.491Z,0.80
2019-01-10T02:18:43.462Z,0.80
2019-01-10T02:21:09.457Z,0.70
2019-01-10T02:23:36.146Z,0.70
2019-01-10T02:26:02.139Z,0.60
2019-01-10T02:28:28.982Z,0.70
2019-01-10T02:30:54.139Z,0.70
2019-01-10T02:33:20.119Z,0.70
2019-01-10T02:35:46.110Z,0.60
2019-01-10T02:38:12.089Z,0.70
2019-01-10T02:40:38.809Z,0.60
2019-01-10T02:43:04.812Z,0.60
2019-01-10T02:45:31.517Z,0.60
2019-01-10T02:47:57.483Z,0.60
2019-01-10T02:50:23.482Z,0.60
2019-01-10T02:52:50.183Z,0.60
2019-01-10T02:55:16.175Z,0.50
2019-01-10T02:57:42.136Z,0.50
2019-01-10T03:00:08.119Z,0.60
2019-01-10T03:02:34.086Z,0.60
2019-01-10T03:05:00.426Z,0.60
2019-01-10T03:07:26.844Z,0.50
2019-01-10T03:09:52.790Z,0.50
2019-01-10T03:12:18.760Z,0.50
2019-01-10T03:14:44.725Z,0.60
2019-01-10T03:17:10.709Z,0.60
2019-01-10T03:19:36.667Z,0.60
2019-01-10T03:22:02.641Z,0.60
2019-01-10T03:24:28.595Z,0.60
2019-01-10T03:26:54.563Z,0.60
2019-01-10T03:29:21.259Z,0.60
2019-01-10T03:31:47.228Z,0.60
2019-01-10T03:34:13.920Z,0.80
2019-01-10T03:36:40.630Z,0.80
2019-01-10T03:39:06.602Z,0.70
2019-01-10T03:41:32.581Z,0.80
2019-01-10T03:43:58.554Z,0.80
2019-01-10T03:46:25.287Z,0.90
2019-01-10T03:48:51.236Z,0.90
2019-01-10T03:51:17.949Z,1.00
2019-01-10T03:53:43.909Z,1.00
2019-01-10T03:56:09.871Z,1.00
2019-01-10T03:58:36.570Z,1.00
2019-01-10T04:01:02.588Z,1.00
2019-01-10T04:03:28.570Z,1.00
2019-01-10T04:05:54.517Z,1.00
2019-01-10T04:08:21.235Z,0.90
2019-01-10T04:10:47.198Z,0.90
2019-01-10T04:13:13.185Z,1.00
2019-01-10T04:15:39.146Z,0.90
2019-01-10T04:18:05.124Z,0.90
2019-01-10T04:20:31.139Z,0.90
2019-01-10T04:22:57.112Z,1.00
2019-01-10T04:25:23.070Z,1.00
2019-01-10T04:27:49.062Z,1.00
2019-01-10T04:30:15.023Z,1.00
2019-01-10T04:32:40.994Z,1.00
2019-01-10T04:35:07.665Z,1.00
2019-01-10T04:37:33.640Z,0.90
2019-01-10T04:39:59.601Z,1.00
2019-01-10T04:42:25.576Z,1.00
2019-01-10T04:44:51.532Z,1.00
2019-01-10T04:47:17.520Z,1.00
2019-01-10T04:49:43.469Z,1.00
2019-01-10T04:52:10.181Z,1.00
2019-01-10T04:54:38.312Z,0.90
2019-01-10T04:57:02.123Z,1.00
2019-01-10T04:59:28.093Z,1.00
2019-01-10T05:01:54.054Z,1.00
2019-01-10T05:04:20.044Z,1.00
2019-01-10T05:06:46.012Z,1.00
2019-01-10T05:09:12.025Z,1.10
2019-01-10T05:11:37.984Z,1.20
2019-01-10T05:14:04.712Z,1.10
2019-01-10T05:16:30.650Z,1.10
2019-01-10T05:18:57.471Z,1.10
2019-01-10T05:21:23.390Z,1.10
2019-01-10T05:23:49.367Z,1.10
2019-01-10T05:26:15.359Z,1.10
2019-01-10T05:28:42.076Z,1.10
2019-01-10T05:31:08.025Z,1.10
2019-01-10T05:33:34.739Z,1.10
2019-01-10T05:36:00.710Z,1.10
2019-01-10T05:38:26.703Z,1.10
2019-01-10T05:40:53.399Z,1.20
2019-01-10T05:43:19.402Z,1.10
2019-01-10T05:45:45.396Z,1.10
2019-01-10T05:48:11.429Z,1.20
2019-01-10T05:50:37.397Z,1.10
2019-01-10T05:53:03.347Z,1.20
2019-01-10T05:55:29.321Z,1.20
2019-01-10T05:57:55.273Z,1.20
2019-01-10T06:00:22.027Z,1.20
2019-01-10T06:02:47.972Z,1.10
2019-01-10T06:05:14.683Z,1.20
2019-01-10T06:07:40.638Z,1.20
2019-01-10T06:10:06.617Z,1.20
2019-01-10T06:12:32.580Z,1.20
2019-01-10T06:14:58.571Z,1.20
2019-01-10T06:17:24.534Z,1.20
2019-01-10T06:19:50.511Z,1.30
2019-01-10T06:22:16.452Z,1.20
2019-01-10T06:24:42.420Z,1.30
2019-01-10T06:27:08.372Z,1.30
2019-01-10T06:29:34.361Z,1.30
2019-01-10T06:32:00.318Z,1.30
2019-01-10T06:34:26.277Z,1.40
2019-01-10T06:36:52.991Z,1.30
2019-01-10T06:39:19.822Z,1.30
2019-01-10T06:41:44.986Z,1.30
2019-01-10T06:44:10.944Z,1.30
2019-01-10T06:46:36.949Z,1.30
2019-01-10T06:49:02.898Z,1.30
2019-01-10T06:51:28.884Z,1.30
2019-01-10T06:53:54.853Z,1.30
2019-01-10T06:56:20.823Z,1.30
2019-01-10T06:58:46.764Z,1.30
2019-01-10T07:01:12.747Z,1.30
2019-01-10T07:03:39.427Z,1.30
2019-01-10T07:06:06.195Z,1.30
2019-01-10T07:08:32.138Z,1.30
2019-01-10T07:10:58.126Z,1.30
2019-01-10T07:13:24.087Z,1.30
2019-01-10T07:15:50.804Z,1.30
2019-01-10T07:18:16.752Z,1.30
2019-01-10T07:20:42.764Z,1.30
2019-01-10T07:23:09.470Z,1.30
2019-01-10T07:25:35.437Z,1.30
2019-01-10T07:28:02.154Z,1.30
2019-01-10T07:30:35.811Z,1.30
2019-01-10T07:32:54.147Z,1.30
2019-01-10T07:35:20.110Z,1.30
2019-01-10T07:37:46.073Z,1.20
2019-01-10T07:40:12.752Z,1.30
2019-01-10T07:42:38.716Z,1.30
2019-01-10T07:45:05.412Z,1.30
2019-01-10T07:47:31.392Z,1.30
2019-01-10T07:49:58.080Z,1.40
2019-01-10T07:52:24.050Z,1.40
2019-01-10T07:54:50.757Z,1.50
2019-01-10T07:57:16.735Z,1.40
2019-01-10T07:59:42.705Z,1.40
2019-01-10T08:02:08.700Z,1.50
2019-01-10T08:04:34.679Z,1.40
2019-01-10T08:07:01.372Z,1.50
2019-01-10T08:09:27.345Z,1.50
2019-01-10T08:12:00.410Z,1.50
2019-01-10T08:14:20.095Z,1.50
2019-01-10T08:16:46.808Z,1.50
2019-01-10T08:19:12.787Z,1.50
2019-01-10T08:21:38.731Z,1.50
2019-01-10T08:24:04.733Z,1.50
2019-01-10T08:26:30.694Z,1.50
2019-01-10T08:28:56.668Z,1.60
2019-01-10T08:31:23.363Z,1.60
2019-01-10T08:33:49.361Z,1.60
2019-01-10T08:36:15.302Z,1.60
2019-01-10T08:38:41.270Z,1.60
2019-01-10T08:41:07.960Z,1.70
2019-01-10T08:43:34.686Z,1.70
2019-01-10T08:46:00.640Z,1.70
2019-01-10T08:48:26.623Z,1.80
2019-01-10T08:50:52.569Z,1.80
2019-01-10T08:53:18.543Z,1.80
2019-01-10T08:55:45.255Z,1.80
2019-01-10T08:58:11.206Z,1.80
2019-01-10T09:00:37.183Z,1.90
2019-01-10T09:03:03.136Z,2.00
2019-01-10T09:05:29.854Z,2.00
2019-01-10T09:07:55.815Z,2.00
2019-01-10T09:10:21.828Z,2.10
2019-01-10T09:12:48.527Z,2.20
2019-01-10T09:15:23.047Z,2.20
2019-01-10T09:17:41.272Z,2.20
2019-01-10T09:20:07.261Z,2.20
2019-01-10T09:22:33.954Z,2.30
2019-01-10T09:24:59.939Z,2.30
2019-01-10T09:27:25.896Z,2.30
2019-01-10T09:29:51.870Z,2.40
2019-01-10T09:32:18.558Z,2.50
2019-01-10T09:34:44.522Z,2.40
2019-01-10T09:37:10.546Z,2.50
2019-01-10T09:39:37.240Z,2.60
2019-01-10T09:42:03.226Z,2.60
2019-01-10T09:44:29.183Z,2.60
2019-01-10T09:46:55.180Z,2.70
2019-01-10T09:49:21.151Z,2.70
2019-01-10T09:51:47.125Z,2.80
2019-01-10T09:54:13.079Z,2.80
2019-01-10T09:56:39.812Z,2.90
2019-01-10T09:59:05.778Z,2.90
2019-01-10T10:01:32.514Z,3.00
2019-01-10T10:03:58.480Z,3.00
2019-01-10T10:06:24.458Z,3.00
2019-01-10T10:08:50.410Z,3.10
2019-01-10T10:11:16.469Z,3.10
2019-01-10T10:13:43.100Z,3.20
2019-01-10T10:16:09.875Z,3.20
2019-01-10T10:18:35.820Z,3.20
2019-01-10T10:21:02.547Z,3.30
2019-01-10T10:23:28.487Z,3.20
2019-01-10T10:25:55.173Z,3.30
2019-01-10T10:28:21.152Z,3.20
2019-01-10T10:30:47.108Z,3.30
2019-01-10T10:33:13.076Z,3.30
2019-01-10T10:35:39.015Z,3.30
2019-01-10T10:38:05.741Z,3.30
2019-01-10T10:40:32.439Z,3.30
2019-01-10T10:42:58.395Z,3.30
2019-01-10T10:45:24.359Z,3.30
2019-01-10T10:47:50.325Z,3.30
2019-01-10T10:50:16.275Z,3.20
2019-01-10T10:52:43.002Z,3.20
2019-01-10T10:55:08.978Z,3.20
2019-01-10T10:57:35.018Z,3.30
2019-01-10T11:00:00.984Z,3.30
2019-01-10T11:02:27.711Z,3.30
2019-01-10T11:04:53.675Z,3.30
2019-01-10T11:07:19.655Z,3.30
2019-01-10T11:09:46.370Z,3.40
2019-01-10T11:12:12.364Z,3.30
2019-01-10T11:14:38.320Z,3.40
2019-01-10T11:17:04.285Z,3.40
2019-01-10T11:19:30.999Z,3.50
2019-01-10T11:21:56.954Z,3.50
2019-01-10T11:24:23.659Z,3.60
2019-01-10T11:26:49.623Z,3.60
2019-01-10T11:29:15.606Z,3.60
2019-01-10T11:31:41.553Z,3.70
2019-01-10T11:34:08.255Z,3.70
2019-01-10T11:36:34.198Z,3.70
2019-01-10T11:39:00.159Z,3.80
2019-01-10T11:41:26.122Z,3.80
2019-01-10T11:43:52.099Z,3.80
2019-01-10T11:46:19.791Z,3.80
2019-01-10T11:48:44.827Z,3.90
2019-01-10T11:51:10.807Z,3.90
2019-01-10T11:53:36.834Z,3.90
2019-01-10T11:56:02.775Z,3.90
2019-01-10T11:58:28.762Z,3.90
2019-01-10T12:00:54.713Z,3.90
2019-01-10T12:03:20.687Z,3.90
2019-01-10T12:05:52.548Z,3.90
2019-01-10T12:08:13.384Z,3.90
2019-01-10T12:10:39.358Z,4.00
2019-01-10T12:13:06.059Z,4.10
2019-01-10T12:15:32.043Z,4.10
2019-01-10T12:17:57.980Z,4.20
2019-01-10T12:20:23.962Z,4.20
2019-01-10T12:22:49.905Z,4.30
2019-01-10T12:25:15.892Z,4.30
2019-01-10T12:27:41.868Z,4.40
2019-01-10T12:30:07.842Z,4.50
2019-01-10T12:32:33.804Z,4.50
2019-01-10T12:34:59.791Z,4.60
2019-01-10T12:37:25.745Z,4.60
2019-01-10T12:39:52.478Z,4.60
2019-01-10T12:42:19.169Z,4.60
2019-01-10T12:44:45.161Z,4.50
2019-01-10T12:47:11.138Z,4.50
2019-01-10T12:49:37.152Z,4.50
2019-01-10T12:52:03.115Z,4.60
2019-01-10T12:54:29.844Z,4.60
2019-01-10T12:56:56.554Z,4.70
2019-01-10T12:59:23.975Z,4.60
2019-01-10T13:01:49.968Z,4.60
2019-01-10T13:04:16.666Z,4.70
2019-01-10T13:06:42.628Z,4.70
2019-01-10T13:09:09.323Z,4.80
2019-01-10T13:11:35.316Z,4.70
2019-01-10T13:14:05.328Z,4.90
2019-01-10T13:16:27.299Z,4.90
2019-01-10T13:18:53.278Z,4.90
2019-01-10T13:21:19.273Z,4.80
2019-01-10T13:23:45.997Z,5.00
2019-01-10T13:26:11.978Z,5.00
2019-01-10T13:28:37.935Z,5.00
2019-01-10T13:31:03.917Z,5.00
2019-01-10T13:33:29.864Z,5.00
2019-01-10T13:35:55.848Z,5.00
2019-01-10T13:38:21.795Z,5.00
2019-01-10T13:40:47.755Z,5.00
2019-01-10T13:43:13.711Z,5.00
2019-01-10T13:45:46.061Z,4.80
2019-01-10T13:48:06.427Z,4.80
2019-01-10T13:50:32.379Z,4.80
2019-01-10T13:52:59.097Z,4.70
2019-01-10T13:55:25.051Z,4.70
2019-01-10T13:57:51.083Z,4.80
2019-01-10T14:00:17.035Z,4.80
2019-01-10T14:02:43.015Z,4.90
2019-01-10T14:05:10.675Z,5.00
2019-01-10T14:07:36.469Z,5.00
2019-01-10T14:10:02.408Z,5.00
2019-01-10T14:12:29.141Z,5.00
2019-01-10T14:15:02.073Z,5.00
2019-01-10T14:17:28.048Z,5.00
2019-01-10T14:19:53.997Z,4.90
2019-01-10T14:22:20.716Z,4.80
2019-01-10T14:24:47.418Z,4.80
2019-01-10T14:27:13.396Z,4.80
2019-01-10T14:29:40.136Z,4.70
2019-01-10T14:32:06.854Z,4.70
2019-01-10T14:34:33.578Z,4.60
2019-01-10T14:36:59.534Z,4.60
2019-01-10T14:39:26.234Z,4.50
2019-01-10T14:41:52.197Z,4.60
2019-01-10T14:44:18.972Z,4.50
2019-01-10T14:46:44.926Z,4.50
2019-01-10T14:49:10.892Z,4.40
2019-01-10T14:51:36.866Z,4.40
2019-01-10T14:54:02.837Z,4.40
2019-01-10T14:56:29.520Z,4.40
2019-01-10T14:58:55.497Z,4.40
2019-01-10T15:01:21.482Z,4.40
2019-01-10T15:03:47.461Z,4.40
2019-01-10T15:06:13.418Z,4.40
2019-01-10T15:08:39.436Z,4.30
2019-01-10T15:11:05.398Z,4.30
2019-01-10T15:13:31.380Z,4.20
2019-01-10T15:15:57.327Z,4.20
2019-01-10T15:18:23.275Z,4.10
2019-01-10T15:20:49.250Z,4.10
2019-01-10T15:23:15.201Z,4.10
2019-01-10T15:25:41.191Z,4.00
2019-01-10T15:28:07.145Z,4.00
2019-01-10T15:30:33.136Z,4.00
2019-01-10T15:32:59.091Z,4.00
2019-01-10T15:35:25.089Z,4.10
2019-01-10T15:37:51.040Z,4.00
2019-01-10T15:40:17.733Z,4.00
2019-01-10T15:42:43.716Z,4.00
2019-01-10T15:45:10.403Z,3.80
2019-01-10T15:47:36.379Z,3.80
2019-01-10T15:50:02.337Z,3.80
2019-01-10T15:52:28.303Z,3.80
2019-01-10T15:54:54.244Z,3.70
2019-01-10T15:57:20.966Z,3.70
2019-01-10T15:59:47.655Z,3.70
2019-01-10T16:02:13.658Z,3.70
2019-01-10T16:04:39.618Z,3.60
2019-01-10T16:07:05.599Z,3.70
2019-01-10T16:09:31.556Z,3.70
2019-01-10T16:11:57.569Z,3.70
2019-01-10T16:14:23.520Z,3.70
2019-01-10T16:16:49.478Z,3.70
2019-01-10T16:19:16.186Z,3.60
2019-01-10T16:21:42.157Z,3.60
2019-01-10T16:24:08.868Z,3.70
2019-01-10T16:26:34.851Z,3.70
2019-01-10T16:29:00.821Z,3.70
2019-01-10T16:31:27.509Z,3.70
2019-01-10T16:33:53.490Z,3.70
2019-01-10T16:36:20.171Z,3.80
2019-01-10T16:38:46.158Z,3.70
2019-01-10T16:41:12.849Z,3.70
2019-01-10T16:43:38.856Z,3.70
2019-01-10T16:46:04.813Z,3.70
2019-01-10T16:48:30.788Z,3.70
2019-01-10T16:50:56.735Z,3.70
2019-01-10T16:53:24.031Z,3.70
2019-01-10T16:55:48.718Z,3.70
2019-01-10T16:58:14.684Z,3.70
2019-01-10T17:00:40.643Z,3.70
2019-01-10T17:03:06.611Z,3.70
2019-01-10T17:05:32.590Z,3.60
2019-01-10T17:07:59.268Z,3.60
2019-01-10T17:10:25.261Z,3.60
2019-01-10T17:12:51.240Z,3.60
2019-01-10T17:15:17.243Z,3.60
2019-01-10T17:17:43.210Z,3.60
2019-01-10T17:20:09.215Z,3.60
2019-01-10T17:22:35.184Z,3.60
2019-01-10T17:25:01.920Z,3.50
2019-01-10T17:27:28.625Z,3.50
2019-01-10T17:29:54.606Z,3.50
2019-01-10T17:32:20.586Z,3.50
2019-01-10T17:34:46.583Z,3.50
2019-01-10T17:37:12.554Z,3.60
2019-01-10T17:39:39.300Z,3.50
2019-01-10T17:42:06.017Z,3.50
2019-01-10T17:44:32.014Z,3.50
2019-01-10T17:46:58.003Z,3.50
2019-01-10T17:49:24.045Z,3.50
2019-01-10T17:51:50.024Z,3.50
2019-01-10T17:54:16.785Z,3.60
2019-01-10T17:56:43.524Z,3.60
2019-01-10T17:59:10.234Z,3.50
2019-01-10T18:01:36.219Z,3.50
2019-01-10T18:04:02.191Z,3.60
2019-01-10T18:06:28.928Z,3.50
2019-01-10T18:08:55.666Z,3.50
2019-01-10T18:11:21.671Z,3.50
2019-01-10T18:13:48.409Z,3.60
2019-01-10T18:16:14.406Z,3.60
2019-01-10T18:18:40.384Z,3.60
2019-01-10T18:21:06.375Z,3.60
2019-01-10T18:23:32.317Z,3.50
2019-01-10T18:25:58.334Z,3.60
2019-01-10T18:28:24.300Z,3.60
2019-01-10T18:30:50.297Z,3.60
2019-01-10T18:33:16.999Z,3.60
2019-01-10T18:35:42.981Z,3.60
2019-01-10T18:38:09.679Z,3.70
2019-01-10T18:40:35.684Z,3.70
2019-01-10T18:43:01.643Z,3.70
2019-01-10T18:45:27.604Z,3.60
2019-01-10T18:47:57.258Z,3.60
2019-01-10T18:50:19.632Z,3.70
2019-01-10T18:52:46.353Z,3.70
2019-01-10T18:55:13.061Z,3.70
2019-01-10T18:57:39.059Z,3.70
2019-01-10T19:00:05.037Z,3.60
2019-01-10T19:02:31.791Z,3.60
2019-01-10T19:04:58.488Z,3.60
2019-01-10T19:07:24.491Z,3.60
2019-01-10T19:09:50.502Z,3.60
2019-01-10T19:12:16.499Z,3.60
2019-01-10T19:14:43.191Z,3.60
2019-01-10T19:17:09.201Z,3.60
2019-01-10T19:19:35.150Z,3.60
2019-01-10T19:22:01.123Z,3.60
2019-01-10T19:24:27.831Z,3.60
2019-01-10T19:26:54.564Z,3.60
2019-01-10T19:29:20.507Z,3.60
2019-01-10T19:31:47.243Z,3.60
2019-01-10T19:34:13.944Z,3.60
2019-01-10T19:36:39.894Z,3.60
2019-01-10T19:39:05.872Z,3.60
2019-01-10T19:41:31.838Z,3.50
2019-01-10T19:43:57.837Z,3.60
2019-01-10T19:46:23.796Z,3.60
2019-01-10T19:48:49.785Z,3.60
2019-01-10T19:51:15.743Z,3.60
2019-01-10T19:53:42.460Z,3.50
2019-01-10T19:56:08.414Z,3.60
2019-01-10T19:58:35.156Z,3.50
2019-01-10T20:01:01.856Z,3.50
2019-01-10T20:03:27.865Z,3.50
2019-01-10T20:05:53.832Z,3.60
2019-01-10T20:08:20.547Z,3.60
2019-01-10T20:10:46.492Z,3.60
2019-01-10T20:13:13.215Z,3.60
2019-01-10T20:15:39.176Z,3.60
2019-01-10T20:18:05.870Z,3.60
2019-01-10T20:20:31.943Z,3.60
2019-01-10T20:22:57.905Z,3.60
2019-01-10T20:25:23.907Z,3.60
2019-01-10T20:27:49.874Z,3.60
2019-01-10T20:30:16.603Z,3.60
2019-01-10T20:32:42.647Z,3.60
2019-01-10T20:35:09.387Z,3.60
2019-01-10T20:37:35.336Z,3.60
2019-01-10T20:40:01.328Z,3.50
2019-01-10T20:42:27.299Z,3.50
2019-01-10T20:44:53.283Z,3.50
2019-01-10T20:47:19.982Z,3.50
2019-01-10T20:49:45.965Z,3.60
2019-01-10T20:52:12.651Z,3.50
2019-01-10T20:54:38.653Z,3.50
2019-01-10T20:57:04.619Z,3.50
2019-01-10T20:59:31.373Z,3.50
2019-01-10T21:01:58.058Z,3.50
2019-01-10T21:04:24.074Z,3.50
2019-01-10T21:06:50.046Z,3.50
2019-01-10T21:09:16.794Z,3.50
2019-01-10T21:11:43.534Z,3.50
2019-01-10T21:14:10.263Z,3.50
2019-01-10T21:16:36.261Z,3.40
2019-01-10T21:19:02.212Z,3.50
2019-01-10T21:21:28.200Z,3.50
2019-01-10T21:23:54.171Z,3.50
2019-01-10T21:26:20.911Z,3.50
2019-01-10T21:28:47.620Z,3.50
2019-01-10T21:31:13.616Z,3.40
2019-01-10T21:33:39.593Z,3.50
2019-01-10T21:36:06.333Z,3.50
2019-01-10T21:38:33.075Z,3.50
2019-01-10T21:40:59.153Z,3.50
2019-01-10T21:43:25.153Z,3.50
2019-01-10T21:45:51.131Z,3.50
2019-01-10T21:48:17.074Z,3.50
2019-01-10T21:50:43.059Z,3.50
2019-01-10T21:53:09.030Z,3.50
2019-01-10T21:55:35.891Z,3.50
2019-01-10T21:58:01.982Z,3.50
2019-01-10T22:00:28.682Z,3.50
2019-01-10T22:02:54.694Z,3.50
2019-01-10T22:05:20.655Z,3.40
2019-01-10T22:07:46.667Z,3.50
2019-01-10T22:10:12.620Z,3.50
2019-01-10T22:12:39.411Z,3.50
2019-01-10T22:15:05.404Z,3.50
2019-01-10T22:17:31.411Z,3.50
2019-01-10T22:19:58.178Z,3.50
2019-01-10T22:22:24.201Z,3.50
2019-01-10T22:24:50.196Z,3.50
2019-01-10T22:27:16.963Z,3.50
2019-01-10T22:29:42.941Z,3.40
2019-01-10T22:32:09.700Z,3.40
2019-01-10T22:34:35.684Z,3.50
2019-01-10T22:37:01.685Z,3.40
2019-01-10T22:39:27.664Z,3.40
2019-01-10T22:41:54.445Z,3.40
2019-01-10T22:44:20.435Z,3.40
2019-01-10T22:46:47.156Z,3.40
2019-01-10T22:49:13.114Z,3.40
2019-01-10T22:51:39.061Z,3.40
2019-01-10T22:54:05.046Z,3.40
2019-01-10T22:56:31.024Z,3.40
2019-01-10T22:58:57.063Z,3.40
2019-01-10T23:01:23.078Z,3.40
2019-01-10T23:03:49.070Z,3.40
2019-01-10T23:06:15.085Z,3.40
2019-01-10T23:08:41.088Z,3.50
2019-01-10T23:11:07.810Z,3.40
2019-01-10T23:13:34.579Z,3.40
2019-01-10T23:16:00.561Z,3.40
2019-01-10T23:18:27.320Z,3.40
2019-01-10T23:20:54.055Z,3.40
2019-01-10T23:23:20.092Z,3.40
2019-01-10T23:25:46.800Z,3.50
2019-01-10T23:28:12.826Z,3.40
2019-01-10T23:30:38.804Z,3.50
2019-01-10T23:33:04.813Z,3.50
2019-01-10T23:35:30.881Z,3.50
2019-01-10T23:37:56.812Z,3.50
2019-01-10T23:40:22.826Z,3.50
2019-01-10T23:42:48.793Z,3.50
2019-01-10T23:45:15.521Z,3.50
2019-01-10T23:47:42.239Z,3.50
2019-01-10T23:50:08.233Z,3.50
2019-01-10T23:52:34.187Z,3.50
2019-01-10T23:55:00.480Z,3.50
2019-01-10T23:57:26.449Z,3.50
2019-01-10T23:59:52.460Z,3.50
